Jacksonville, IL

3:56 PM CDT on May 05, 2015 (GMT -0500)
Jacksonville Municipal | | Change Station
CLOSE
Current Station
Airport
Location: Jacksonville,
Elevation: 623 ft
Nearby Weather Stations

Elev 623 ft 39.77 °N, 90.24 °W | Updated 21 minutes ago

Mostly Cloudy
Mostly Cloudy
86 °F
Feels Like 84 °F
N
8
Wind Variable Wind from South

Today
High -- | Low -- °F
--% Chance of Precip.
Yesterday
High -- | Low -- °F
Precip. -- in
5:57 AM 7:59 PM
Full, 97% visible
Pressure 30.11 in
Visibility 10.0 miles
Clouds Scattered Clouds 7500 ft
Scattered Clouds 8500 ft
Mostly Cloudy 11000 ft
Heat Index 84 °F
Dew Point 53 °F
Humidity 33%
Rainfall 0.00 in
Snow Depth Not available.
UV 4 out of 12
Pollen 4.10 out of 12
Air Quality Not available.
Flu Activity Local Activity
METAR KIJX 052035Z AUTO 19007KT 150V220 10SM SCT075 SCT085 BKN110 30/12 A3011 RMK AO2 T02980118

More Conditions Fewer Conditions

Pressure 30.11 in
Visibility 10.0 miles
Clouds Scattered Clouds 7500 ft
Scattered Clouds 8500 ft
Mostly Cloudy 11000 ft
Heat Index 84 °F
Dew Point 53 °F
Humidity 33%
Rainfall 0.00 in
Snow Depth Not available.
UV 4 out of 12
Pollen 4.10 out of 12
Air Quality Not available.
Flu Activity Local Activity
METAR KIJX 052035Z AUTO 19007KT 150V220 10SM SCT075 SCT085 BKN110 30/12 A3011 RMK AO2 T02980118

More Conditions Fewer Conditions

10-Day Weather Forecast

Almanac

Astronomy

May. 05, 2015 Rise Set
Actual Time
Civil Twilight
Nautical Twilight
Astronomical Twilight
Moon
Length of Visible Light
Length of Day
Tomorrow will be .
, % of the Moon is Illuminated

Today's Extremes

State Highs State Lows

Community

WunderPhotos

Upload Photos

1,818,975 photos uploaded!

WunderBlogs® & News

Nearby

Air Quality

  Air Quality AQ Index Pollutant
Not available.

Snow Depth

Station Depth Elevation

Earthquake Activity

City Distance Mag. Time & Date
Minimum magnitude displayed is 2.5.

Coastal Water Temperatures

Place Temperature

Stations

Nearby Weather Stations

Station Location Temp. Windchill Dew Point Humidity Wind Precip. Elev Updated Type